sensor_id;sensor_type;location;lat;lon;timestamp;P1;durP1;ratioP1;P2;durP2;ratioP2
68886;SDS011;55925;51.764;6.402;2023-03-18T00:02:14;7.55;;;3.70;;
68886;SDS011;55925;51.764;6.402;2023-03-18T00:04:42;8.50;;;2.85;;
68886;SDS011;55925;51.764;6.402;2023-03-18T00:07:08;8.65;;;3.40;;
68886;SDS011;55925;51.764;6.402;2023-03-18T00:09:35;8.88;;;3.55;;
68886;SDS011;55925;51.764;6.402;2023-03-18T00:12:01;9.27;;;3.33;;
68886;SDS011;55925;51.764;6.402;2023-03-18T00:14:27;9.90;;;3.50;;
68886;SDS011;55925;51.764;6.402;2023-03-18T00:16:53;8.98;;;3.40;;
68886;SDS011;55925;51.764;6.402;2023-03-18T00:19:20;13.13;;;4.18;;
68886;SDS011;55925;51.764;6.402;2023-03-18T00:21:46;8.35;;;3.75;;
68886;SDS011;55925;51.764;6.402;2023-03-18T00:24:12;9.00;;;3.83;;
68886;SDS011;55925;51.764;6.402;2023-03-18T00:26:39;9.88;;;3.90;;
68886;SDS011;55925;51.764;6.402;2023-03-18T00:29:06;9.32;;;3.97;;
68886;SDS011;55925;51.764;6.402;2023-03-18T00:31:32;9.93;;;3.70;;
68886;SDS011;55925;51.764;6.402;2023-03-18T00:33:58;10.93;;;3.63;;
68886;SDS011;55925;51.764;6.402;2023-03-18T00:36:24;12.32;;;3.47;;
68886;SDS011;55925;51.764;6.402;2023-03-18T00:38:52;9.93;;;3.83;;
68886;SDS011;55925;51.764;6.402;2023-03-18T00:41:21;11.35;;;4.10;;
68886;SDS011;55925;51.764;6.402;2023-03-18T00:43:48;9.07;;;3.40;;
68886;SDS011;55925;51.764;6.402;2023-03-18T00:46:37;10.02;;;4.25;;
68886;SDS011;55925;51.764;6.402;2023-03-18T00:49:03;8.15;;;3.90;;
68886;SDS011;55925;51.764;6.402;2023-03-18T00:51:31;11.80;;;3.80;;
68886;SDS011;55925;51.764;6.402;2023-03-18T00:53:58;10.20;;;4.22;;
68886;SDS011;55925;51.764;6.402;2023-03-18T00:56:25;8.82;;;3.83;;
68886;SDS011;55925;51.764;6.402;2023-03-18T00:58:51;9.07;;;4.32;;
68886;SDS011;55925;51.764;6.402;2023-03-18T01:01:18;9.25;;;4.25;;
68886;SDS011;55925;51.764;6.402;2023-03-18T01:03:44;8.15;;;3.65;;
68886;SDS011;55925;51.764;6.402;2023-03-18T01:06:11;10.68;;;4.03;;
68886;SDS011;55925;51.764;6.402;2023-03-18T01:08:37;9.95;;;4.32;;
68886;SDS011;55925;51.764;6.402;2023-03-18T01:11:04;9.40;;;4.18;;
68886;SDS011;55925;51.764;6.402;2023-03-18T01:13:30;9.02;;;4.20;;
68886;SDS011;55925;51.764;6.402;2023-03-18T01:15:56;7.85;;;4.38;;
68886;SDS011;55925;51.764;6.402;2023-03-18T01:18:23;9.55;;;4.45;;
68886;SDS011;55925;51.764;6.402;2023-03-18T01:20:49;8.05;;;4.00;;
68886;SDS011;55925;51.764;6.402;2023-03-18T01:23:15;10.68;;;4.35;;
68886;SDS011;55925;51.764;6.402;2023-03-18T01:25:42;9.20;;;4.28;;
68886;SDS011;55925;51.764;6.402;2023-03-18T01:28:09;9.95;;;3.92;;
68886;SDS011;55925;51.764;6.402;2023-03-18T01:30:35;10.13;;;4.32;;
68886;SDS011;55925;51.764;6.402;2023-03-18T01:33:02;13.55;;;4.22;;
68886;SDS011;55925;51.764;6.402;2023-03-18T01:35:32;11.82;;;4.07;;
68886;SDS011;55925;51.764;6.402;2023-03-18T01:37:58;9.68;;;3.85;;
68886;SDS011;55925;51.764;6.402;2023-03-18T01:40:25;11.13;;;3.92;;
68886;SDS011;55925;51.764;6.402;2023-03-18T01:42:56;8.43;;;3.63;;
68886;SDS011;55925;51.764;6.402;2023-03-18T01:45:26;8.73;;;4.20;;
68886;SDS011;55925;51.764;6.402;2023-03-18T01:47:53;15.25;;;4.25;;
68886;SDS011;55925;51.764;6.402;2023-03-18T01:50:40;10.50;;;3.85;;
68886;SDS011;55925;51.764;6.402;2023-03-18T01:53:08;13.05;;;4.20;;
68886;SDS011;55925;51.764;6.402;2023-03-18T01:55:35;11.60;;;4.07;;
68886;SDS011;55925;51.764;6.402;2023-03-18T01:58:02;9.32;;;4.38;;
68886;SDS011;55925;51.764;6.402;2023-03-18T02:00:29;12.65;;;4.47;;
68886;SDS011;55925;51.764;6.402;2023-03-18T02:02:55;13.43;;;5.05;;
68886;SDS011;55925;51.764;6.402;2023-03-18T02:05:23;10.80;;;4.47;;
68886;SDS011;55925;51.764;6.402;2023-03-18T02:07:50;9.88;;;4.82;;
68886;SDS011;55925;51.764;6.402;2023-03-18T02:10:26;10.77;;;4.80;;
68886;SDS011;55925;51.764;6.402;2023-03-18T02:13:04;9.25;;;4.18;;
68886;SDS011;55925;51.764;6.402;2023-03-18T02:15:30;11.18;;;4.80;;
68886;SDS011;55925;51.764;6.402;2023-03-18T02:18:09;8.35;;;3.95;;
68886;SDS011;55925;51.764;6.402;2023-03-18T02:28:16;11.93;;;4.97;;
68886;SDS011;55925;51.764;6.402;2023-03-18T02:30:47;12.05;;;4.95;;
68886;SDS011;55925;51.764;6.402;2023-03-18T02:35:42;13.57;;;5.43;;
68886;SDS011;55925;51.764;6.402;2023-03-18T02:38:09;13.45;;;5.72;;
68886;SDS011;55925;51.764;6.402;2023-03-18T02:40:36;13.02;;;6.10;;
68886;SDS011;55925;51.764;6.402;2023-03-18T02:43:16;10.75;;;5.45;;
68886;SDS011;55925;51.764;6.402;2023-03-18T02:48:26;12.55;;;5.43;;
68886;SDS011;55925;51.764;6.402;2023-03-18T02:50:53;14.00;;;6.18;;
68886;SDS011;55925;51.764;6.402;2023-03-18T02:53:20;15.02;;;6.63;;
68886;SDS011;55925;51.764;6.402;2023-03-18T02:55:46;15.85;;;5.50;;
68886;SDS011;55925;51.764;6.402;2023-03-18T02:58:12;15.38;;;5.60;;
68886;SDS011;55925;51.764;6.402;2023-03-18T03:00:38;12.75;;;6.30;;
68886;SDS011;55925;51.764;6.402;2023-03-18T03:03:04;15.45;;;6.90;;
68886;SDS011;55925;51.764;6.402;2023-03-18T03:05:30;14.27;;;5.97;;
68886;SDS011;55925;51.764;6.402;2023-03-18T03:07:56;14.77;;;6.15;;
68886;SDS011;55925;51.764;6.402;2023-03-18T03:10:22;12.23;;;5.93;;
68886;SDS011;55925;51.764;6.402;2023-03-18T03:12:48;13.07;;;6.40;;
68886;SDS011;55925;51.764;6.402;2023-03-18T03:15:15;14.55;;;6.10;;
68886;SDS011;55925;51.764;6.402;2023-03-18T03:17:41;13.88;;;6.13;;
68886;SDS011;55925;51.764;6.402;2023-03-18T03:20:07;16.42;;;6.88;;
68886;SDS011;55925;51.764;6.402;2023-03-18T03:22:34;12.55;;;6.55;;
68886;SDS011;55925;51.764;6.402;2023-03-18T03:25:01;13.68;;;6.13;;
68886;SDS011;55925;51.764;6.402;2023-03-18T03:27:27;14.27;;;7.13;;
68886;SDS011;55925;51.764;6.402;2023-03-18T03:29:53;15.32;;;7.40;;
68886;SDS011;55925;51.764;6.402;2023-03-18T03:32:19;18.00;;;7.43;;
68886;SDS011;55925;51.764;6.402;2023-03-18T03:34:45;17.58;;;7.88;;
68886;SDS011;55925;51.764;6.402;2023-03-18T03:37:13;14.35;;;7.60;;
68886;SDS011;55925;51.764;6.402;2023-03-18T03:39:39;17.88;;;8.20;;
68886;SDS011;55925;51.764;6.402;2023-03-18T03:42:05;19.38;;;7.57;;
68886;SDS011;55925;51.764;6.402;2023-03-18T03:44:31;18.45;;;8.35;;
68886;SDS011;55925;51.764;6.402;2023-03-18T03:46:57;17.58;;;8.52;;
68886;SDS011;55925;51.764;6.402;2023-03-18T03:49:23;18.27;;;8.40;;
68886;SDS011;55925;51.764;6.402;2023-03-18T03:51:49;18.10;;;8.45;;
68886;SDS011;55925;51.764;6.402;2023-03-18T03:54:15;17.92;;;8.90;;
68886;SDS011;55925;51.764;6.402;2023-03-18T03:56:41;19.95;;;8.27;;
68886;SDS011;55925;51.764;6.402;2023-03-18T03:59:07;20.90;;;9.18;;
68886;SDS011;55925;51.764;6.402;2023-03-18T04:01:34;18.42;;;9.60;;
68886;SDS011;55925;51.764;6.402;2023-03-18T04:04:00;21.60;;;10.32;;
68886;SDS011;55925;51.764;6.402;2023-03-18T04:06:27;20.67;;;10.02;;
68886;SDS011;55925;51.764;6.402;2023-03-18T04:08:53;22.77;;;10.48;;
68886;SDS011;55925;51.764;6.402;2023-03-18T04:11:19;20.85;;;9.68;;
68886;SDS011;55925;51.764;6.402;2023-03-18T04:13:46;27.95;;;11.32;;
68886;SDS011;55925;51.764;6.402;2023-03-18T04:16:12;27.17;;;11.07;;
68886;SDS011;55925;51.764;6.402;2023-03-18T04:18:38;20.38;;;9.75;;
68886;SDS011;55925;51.764;6.402;2023-03-18T04:21:05;20.90;;;10.25;;
68886;SDS011;55925;51.764;6.402;2023-03-18T04:23:32;21.52;;;10.48;;
68886;SDS011;55925;51.764;6.402;2023-03-18T04:25:58;23.38;;;11.00;;
68886;SDS011;55925;51.764;6.402;2023-03-18T04:28:24;23.05;;;11.35;;
68886;SDS011;55925;51.764;6.402;2023-03-18T04:30:50;24.45;;;10.93;;
68886;SDS011;55925;51.764;6.402;2023-03-18T04:33:17;25.60;;;11.27;;
68886;SDS011;55925;51.764;6.402;2023-03-18T04:35:43;25.88;;;11.55;;
68886;SDS011;55925;51.764;6.402;2023-03-18T04:38:09;27.08;;;11.73;;
68886;SDS011;55925;51.764;6.402;2023-03-18T04:40:36;25.55;;;11.23;;
68886;SDS011;55925;51.764;6.402;2023-03-18T04:43:02;28.40;;;12.88;;
68886;SDS011;55925;51.764;6.402;2023-03-18T04:45:28;26.20;;;12.98;;
68886;SDS011;55925;51.764;6.402;2023-03-18T04:47:54;30.10;;;13.23;;
68886;SDS011;55925;51.764;6.402;2023-03-18T04:50:20;27.90;;;13.10;;
68886;SDS011;55925;51.764;6.402;2023-03-18T04:52:47;23.77;;;11.93;;
68886;SDS011;55925;51.764;6.402;2023-03-18T04:55:13;25.08;;;11.98;;
68886;SDS011;55925;51.764;6.402;2023-03-18T04:57:40;25.27;;;12.35;;
68886;SDS011;55925;51.764;6.402;2023-03-18T05:00:08;27.17;;;12.63;;
68886;SDS011;55925;51.764;6.402;2023-03-18T05:02:38;25.10;;;12.70;;
68886;SDS011;55925;51.764;6.402;2023-03-18T05:05:05;24.92;;;12.93;;
68886;SDS011;55925;51.764;6.402;2023-03-18T05:07:31;28.63;;;13.68;;
68886;SDS011;55925;51.764;6.402;2023-03-18T05:09:57;30.92;;;13.00;;
68886;SDS011;55925;51.764;6.402;2023-03-18T05:12:23;29.92;;;13.45;;
68886;SDS011;55925;51.764;6.402;2023-03-18T05:14:50;27.02;;;12.27;;
68886;SDS011;55925;51.764;6.402;2023-03-18T05:17:16;26.23;;;11.88;;
68886;SDS011;55925;51.764;6.402;2023-03-18T05:19:43;25.77;;;12.80;;
68886;SDS011;55925;51.764;6.402;2023-03-18T05:22:10;32.67;;;13.93;;
68886;SDS011;55925;51.764;6.402;2023-03-18T05:24:37;29.42;;;13.80;;
68886;SDS011;55925;51.764;6.402;2023-03-18T05:27:04;27.63;;;13.90;;
68886;SDS011;55925;51.764;6.402;2023-03-18T05:29:30;30.65;;;13.50;;
68886;SDS011;55925;51.764;6.402;2023-03-18T05:31:56;31.80;;;13.70;;
68886;SDS011;55925;51.764;6.402;2023-03-18T05:34:22;25.00;;;12.88;;
68886;SDS011;55925;51.764;6.402;2023-03-18T05:36:48;28.17;;;13.38;;
68886;SDS011;55925;51.764;6.402;2023-03-18T05:39:14;26.63;;;12.75;;
68886;SDS011;55925;51.764;6.402;2023-03-18T05:41:41;33.13;;;14.52;;
68886;SDS011;55925;51.764;6.402;2023-03-18T05:44:07;26.77;;;13.25;;
68886;SDS011;55925;51.764;6.402;2023-03-18T05:46:33;32.75;;;13.90;;
68886;SDS011;55925;51.764;6.402;2023-03-18T05:48:59;28.63;;;14.38;;
68886;SDS011;55925;51.764;6.402;2023-03-18T05:51:25;26.17;;;13.57;;
68886;SDS011;55925;51.764;6.402;2023-03-18T05:53:51;32.85;;;14.20;;
68886;SDS011;55925;51.764;6.402;2023-03-18T05:56:17;28.17;;;12.93;;
68886;SDS011;55925;51.764;6.402;2023-03-18T05:58:43;31.70;;;13.98;;
68886;SDS011;55925;51.764;6.402;2023-03-18T06:01:09;26.67;;;13.52;;
68886;SDS011;55925;51.764;6.402;2023-03-18T06:03:38;29.63;;;13.60;;
68886;SDS011;55925;51.764;6.402;2023-03-18T06:06:04;25.95;;;13.27;;
68886;SDS011;55925;51.764;6.402;2023-03-18T06:08:31;29.92;;;14.48;;
68886;SDS011;55925;51.764;6.402;2023-03-18T06:10:57;28.05;;;14.93;;
68886;SDS011;55925;51.764;6.402;2023-03-18T06:13:23;26.45;;;12.80;;
68886;SDS011;55925;51.764;6.402;2023-03-18T06:15:54;29.63;;;13.48;;
68886;SDS011;55925;51.764;6.402;2023-03-18T06:18:20;33.15;;;14.23;;
68886;SDS011;55925;51.764;6.402;2023-03-18T06:20:46;30.02;;;14.05;;
68886;SDS011;55925;51.764;6.402;2023-03-18T06:23:12;28.52;;;13.43;;
68886;SDS011;55925;51.764;6.402;2023-03-18T06:25:39;33.47;;;14.05;;
68886;SDS011;55925;51.764;6.402;2023-03-18T06:28:06;27.45;;;13.85;;
68886;SDS011;55925;51.764;6.402;2023-03-18T06:30:33;29.73;;;13.32;;
68886;SDS011;55925;51.764;6.402;2023-03-18T06:32:59;27.08;;;14.73;;
68886;SDS011;55925;51.764;6.402;2023-03-18T06:35:25;28.95;;;14.05;;
68886;SDS011;55925;51.764;6.402;2023-03-18T06:37:52;36.55;;;15.73;;
68886;SDS011;55925;51.764;6.402;2023-03-18T06:40:18;30.25;;;15.35;;
68886;SDS011;55925;51.764;6.402;2023-03-18T06:42:44;27.00;;;13.00;;
68886;SDS011;55925;51.764;6.402;2023-03-18T06:45:11;31.60;;;14.07;;
68886;SDS011;55925;51.764;6.402;2023-03-18T06:47:37;30.63;;;14.98;;
68886;SDS011;55925;51.764;6.402;2023-03-18T06:50:04;29.83;;;14.32;;
68886;SDS011;55925;51.764;6.402;2023-03-18T06:52:31;29.38;;;14.88;;
68886;SDS011;55925;51.764;6.402;2023-03-18T06:54:57;33.70;;;15.35;;
68886;SDS011;55925;51.764;6.402;2023-03-18T06:57:23;28.83;;;14.02;;
68886;SDS011;55925;51.764;6.402;2023-03-18T06:59:49;28.73;;;14.30;;
68886;SDS011;55925;51.764;6.402;2023-03-18T07:02:15;31.88;;;14.82;;
68886;SDS011;55925;51.764;6.402;2023-03-18T07:04:41;26.73;;;12.75;;
68886;SDS011;55925;51.764;6.402;2023-03-18T07:07:08;25.05;;;13.32;;
68886;SDS011;55925;51.764;6.402;2023-03-18T07:09:34;24.75;;;12.15;;
68886;SDS011;55925;51.764;6.402;2023-03-18T07:12:01;25.42;;;12.85;;
68886;SDS011;55925;51.764;6.402;2023-03-18T07:14:27;23.05;;;11.52;;
68886;SDS011;55925;51.764;6.402;2023-03-18T07:16:54;26.30;;;11.43;;
68886;SDS011;55925;51.764;6.402;2023-03-18T07:19:20;25.25;;;11.30;;
68886;SDS011;55925;51.764;6.402;2023-03-18T07:21:46;20.75;;;10.38;;
68886;SDS011;55925;51.764;6.402;2023-03-18T07:24:13;24.45;;;11.50;;
68886;SDS011;55925;51.764;6.402;2023-03-18T07:26:41;21.25;;;11.25;;
68886;SDS011;55925;51.764;6.402;2023-03-18T07:29:07;19.80;;;10.30;;
68886;SDS011;55925;51.764;6.402;2023-03-18T07:31:33;19.95;;;10.00;;
68886;SDS011;55925;51.764;6.402;2023-03-18T07:34:00;21.10;;;10.18;;
68886;SDS011;55925;51.764;6.402;2023-03-18T07:36:27;23.45;;;11.02;;
68886;SDS011;55925;51.764;6.402;2023-03-18T07:38:53;17.60;;;9.88;;
68886;SDS011;55925;51.764;6.402;2023-03-18T07:41:19;18.15;;;9.73;;
68886;SDS011;55925;51.764;6.402;2023-03-18T07:43:45;21.92;;;10.93;;
68886;SDS011;55925;51.764;6.402;2023-03-18T07:46:11;21.08;;;9.68;;
68886;SDS011;55925;51.764;6.402;2023-03-18T07:48:37;18.95;;;10.40;;
68886;SDS011;55925;51.764;6.402;2023-03-18T07:51:04;19.75;;;10.10;;
68886;SDS011;55925;51.764;6.402;2023-03-18T07:53:30;18.63;;;10.10;;
68886;SDS011;55925;51.764;6.402;2023-03-18T07:55:57;20.98;;;10.20;;
68886;SDS011;55925;51.764;6.402;2023-03-18T07:58:24;19.10;;;10.32;;
68886;SDS011;55925;51.764;6.402;2023-03-18T08:00:51;18.58;;;9.82;;
68886;SDS011;55925;51.764;6.402;2023-03-18T08:03:17;17.70;;;9.23;;
68886;SDS011;55925;51.764;6.402;2023-03-18T08:05:43;25.65;;;10.32;;
68886;SDS011;55925;51.764;6.402;2023-03-18T08:08:09;21.90;;;9.52;;
68886;SDS011;55925;51.764;6.402;2023-03-18T08:10:35;19.63;;;10.45;;
68886;SDS011;55925;51.764;6.402;2023-03-18T08:13:01;22.75;;;10.48;;
68886;SDS011;55925;51.764;6.402;2023-03-18T08:15:28;20.35;;;10.18;;
68886;SDS011;55925;51.764;6.402;2023-03-18T08:17:54;20.73;;;9.70;;
68886;SDS011;55925;51.764;6.402;2023-03-18T08:20:20;20.77;;;11.10;;
68886;SDS011;55925;51.764;6.402;2023-03-18T08:22:46;19.83;;;10.25;;
68886;SDS011;55925;51.764;6.402;2023-03-18T08:25:14;19.08;;;10.40;;
68886;SDS011;55925;51.764;6.402;2023-03-18T08:27:40;20.48;;;10.43;;
68886;SDS011;55925;51.764;6.402;2023-03-18T08:30:06;20.65;;;9.60;;
68886;SDS011;55925;51.764;6.402;2023-03-18T08:32:33;19.00;;;9.85;;
68886;SDS011;55925;51.764;6.402;2023-03-18T08:34:59;20.85;;;10.45;;
68886;SDS011;55925;51.764;6.402;2023-03-18T08:37:26;17.35;;;9.13;;
68886;SDS011;55925;51.764;6.402;2023-03-18T08:39:52;18.17;;;9.63;;
68886;SDS011;55925;51.764;6.402;2023-03-18T08:42:19;15.70;;;8.32;;
68886;SDS011;55925;51.764;6.402;2023-03-18T08:44:45;19.98;;;9.63;;
68886;SDS011;55925;51.764;6.402;2023-03-18T08:47:11;18.02;;;9.30;;
68886;SDS011;55925;51.764;6.402;2023-03-18T08:49:37;18.02;;;8.48;;
68886;SDS011;55925;51.764;6.402;2023-03-18T08:52:03;17.08;;;9.65;;
68886;SDS011;55925;51.764;6.402;2023-03-18T08:54:30;21.65;;;9.50;;
68886;SDS011;55925;51.764;6.402;2023-03-18T08:56:56;17.83;;;8.98;;
68886;SDS011;55925;51.764;6.402;2023-03-18T08:59:24;17.90;;;8.95;;
68886;SDS011;55925;51.764;6.402;2023-03-18T09:01:50;17.88;;;8.02;;
68886;SDS011;55925;51.764;6.402;2023-03-18T09:04:17;16.10;;;8.23;;
68886;SDS011;55925;51.764;6.402;2023-03-18T09:06:44;18.92;;;8.10;;
68886;SDS011;55925;51.764;6.402;2023-03-18T09:09:10;16.20;;;8.13;;
68886;SDS011;55925;51.764;6.402;2023-03-18T09:11:36;14.25;;;7.15;;
68886;SDS011;55925;51.764;6.402;2023-03-18T09:14:03;14.90;;;7.95;;
68886;SDS011;55925;51.764;6.402;2023-03-18T09:16:29;15.30;;;7.95;;
68886;SDS011;55925;51.764;6.402;2023-03-18T09:18:55;14.43;;;7.68;;
68886;SDS011;55925;51.764;6.402;2023-03-18T09:21:21;15.50;;;7.65;;
68886;SDS011;55925;51.764;6.402;2023-03-18T09:23:47;15.75;;;8.43;;
68886;SDS011;55925;51.764;6.402;2023-03-18T09:26:14;14.57;;;7.10;;
68886;SDS011;55925;51.764;6.402;2023-03-18T09:28:40;13.55;;;7.43;;
68886;SDS011;55925;51.764;6.402;2023-03-18T09:31:06;12.52;;;7.05;;
68886;SDS011;55925;51.764;6.402;2023-03-18T09:33:32;12.48;;;7.38;;
68886;SDS011;55925;51.764;6.402;2023-03-18T09:36:01;13.02;;;7.03;;
68886;SDS011;55925;51.764;6.402;2023-03-18T09:38:28;12.15;;;6.25;;
68886;SDS011;55925;51.764;6.402;2023-03-18T09:53:57;11.23;;;5.53;;
68886;SDS011;55925;51.764;6.402;2023-03-18T09:56:27;10.63;;;5.65;;
68886;SDS011;55925;51.764;6.402;2023-03-18T09:59:01;12.38;;;5.82;;
68886;SDS011;55925;51.764;6.402;2023-03-18T10:01:28;9.38;;;5.05;;
68886;SDS011;55925;51.764;6.402;2023-03-18T10:06:28;8.48;;;4.63;;
68886;SDS011;55925;51.764;6.402;2023-03-18T10:11:30;7.90;;;4.57;;
68886;SDS011;55925;51.764;6.402;2023-03-18T10:19:17;8.00;;;4.03;;
68886;SDS011;55925;51.764;6.402;2023-03-18T10:27:36;7.70;;;3.95;;
68886;SDS011;55925;51.764;6.402;2023-03-18T10:32:30;10.15;;;3.72;;
68886;SDS011;55925;51.764;6.402;2023-03-18T10:40:11;7.97;;;3.38;;
68886;SDS011;55925;51.764;6.402;2023-03-18T10:42:38;7.75;;;3.03;;
68886;SDS011;55925;51.764;6.402;2023-03-18T10:45:07;5.18;;;2.78;;
68886;SDS011;55925;51.764;6.402;2023-03-18T10:47:38;6.00;;;3.58;;
68886;SDS011;55925;51.764;6.402;2023-03-18T10:50:17;6.72;;;3.58;;
68886;SDS011;55925;51.764;6.402;2023-03-18T10:55:15;7.95;;;3.88;;
68886;SDS011;55925;51.764;6.402;2023-03-18T10:57:41;6.47;;;3.40;;
68886;SDS011;55925;51.764;6.402;2023-03-18T11:00:17;7.25;;;3.15;;
68886;SDS011;55925;51.764;6.402;2023-03-18T11:02:49;5.45;;;2.80;;
68886;SDS011;55925;51.764;6.402;2023-03-18T11:05:28;4.78;;;2.00;;
68886;SDS011;55925;51.764;6.402;2023-03-18T11:08:01;4.85;;;2.33;;
68886;SDS011;55925;51.764;6.402;2023-03-18T11:10:36;5.32;;;2.25;;
68886;SDS011;55925;51.764;6.402;2023-03-18T11:13:11;4.78;;;2.53;;
68886;SDS011;55925;51.764;6.402;2023-03-18T11:15:41;5.57;;;2.88;;
68886;SDS011;55925;51.764;6.402;2023-03-18T11:18:11;5.55;;;2.72;;
68886;SDS011;55925;51.764;6.402;2023-03-18T11:20:40;6.53;;;2.90;;
68886;SDS011;55925;51.764;6.402;2023-03-18T11:23:14;5.50;;;2.65;;
68886;SDS011;55925;51.764;6.402;2023-03-18T11:25:44;6.72;;;3.47;;
68886;SDS011;55925;51.764;6.402;2023-03-18T11:28:17;6.35;;;3.28;;
68886;SDS011;55925;51.764;6.402;2023-03-18T11:30:47;8.18;;;3.33;;
68886;SDS011;55925;51.764;6.402;2023-03-18T11:33:14;6.00;;;2.65;;
68886;SDS011;55925;51.764;6.402;2023-03-18T11:41:12;4.80;;;2.80;;
68886;SDS011;55925;51.764;6.402;2023-03-18T11:43:39;6.15;;;3.13;;
68886;SDS011;55925;51.764;6.402;2023-03-18T11:46:18;6.72;;;3.75;;
68886;SDS011;55925;51.764;6.402;2023-03-18T11:48:46;6.57;;;3.20;;
68886;SDS011;55925;51.764;6.402;2023-03-18T11:56:22;8.20;;;3.67;;
68886;SDS011;55925;51.764;6.402;2023-03-18T12:04:13;5.95;;;3.25;;
68886;SDS011;55925;51.764;6.402;2023-03-18T12:06:53;5.00;;;2.60;;
68886;SDS011;55925;51.764;6.402;2023-03-18T12:09:27;6.03;;;3.25;;
68886;SDS011;55925;51.764;6.402;2023-03-18T12:14:34;5.22;;;3.00;;
68886;SDS011;55925;51.764;6.402;2023-03-18T12:17:09;6.40;;;3.42;;
68886;SDS011;55925;51.764;6.402;2023-03-18T12:24:54;6.75;;;3.58;;
68886;SDS011;55925;51.764;6.402;2023-03-18T12:27:28;6.13;;;2.97;;
68886;SDS011;55925;51.764;6.402;2023-03-18T12:30:04;6.35;;;2.60;;
68886;SDS011;55925;51.764;6.402;2023-03-18T12:37:43;6.35;;;2.80;;
68886;SDS011;55925;51.764;6.402;2023-03-18T12:43:12;5.78;;;2.72;;
68886;SDS011;55925;51.764;6.402;2023-03-18T12:45:45;5.57;;;3.25;;
68886;SDS011;55925;51.764;6.402;2023-03-18T12:48:17;6.25;;;2.63;;
68886;SDS011;55925;51.764;6.402;2023-03-18T12:50:47;6.63;;;2.63;;
68886;SDS011;55925;51.764;6.402;2023-03-18T12:55:53;4.10;;;2.05;;
68886;SDS011;55925;51.764;6.402;2023-03-18T12:58:22;5.75;;;2.17;;
68886;SDS011;55925;51.764;6.402;2023-03-18T13:17:07;5.15;;;1.73;;
68886;SDS011;55925;51.764;6.402;2023-03-18T13:19:36;4.20;;;1.70;;
68886;SDS011;55925;51.764;6.402;2023-03-18T13:25:49;3.60;;;1.27;;
68886;SDS011;55925;51.764;6.402;2023-03-18T13:33:11;2.03;;;0.82;;
68886;SDS011;55925;51.764;6.402;2023-03-18T13:35:57;3.30;;;1.20;;
68886;SDS011;55925;51.764;6.402;2023-03-18T13:43:39;2.70;;;1.02;;
68886;SDS011;55925;51.764;6.402;2023-03-18T13:46:15;3.20;;;1.40;;
68886;SDS011;55925;51.764;6.402;2023-03-18T13:48:42;4.28;;;1.30;;
68886;SDS011;55925;51.764;6.402;2023-03-18T13:51:18;5.10;;;1.52;;
68886;SDS011;55925;51.764;6.402;2023-03-18T13:53:44;4.18;;;1.77;;
68886;SDS011;55925;51.764;6.402;2023-03-18T13:58:56;4.30;;;1.50;;
68886;SDS011;55925;51.764;6.402;2023-03-18T14:08:46;5.63;;;1.77;;
68886;SDS011;55925;51.764;6.402;2023-03-18T14:13:38;6.35;;;2.00;;
68886;SDS011;55925;51.764;6.402;2023-03-18T14:16:08;5.78;;;1.80;;
68886;SDS011;55925;51.764;6.402;2023-03-18T14:18:38;5.88;;;2.40;;
68886;SDS011;55925;51.764;6.402;2023-03-18T14:21:11;5.95;;;2.20;;
68886;SDS011;55925;51.764;6.402;2023-03-18T14:23:59;6.47;;;2.55;;
68886;SDS011;55925;51.764;6.402;2023-03-18T14:26:28;6.03;;;2.28;;
68886;SDS011;55925;51.764;6.402;2023-03-18T14:39:13;5.18;;;2.47;;
68886;SDS011;55925;51.764;6.402;2023-03-18T14:41:41;5.05;;;2.25;;
68886;SDS011;55925;51.764;6.402;2023-03-18T14:46:40;6.00;;;2.30;;
68886;SDS011;55925;51.764;6.402;2023-03-18T14:49:50;5.32;;;2.67;;
68886;SDS011;55925;51.764;6.402;2023-03-18T14:51:57;5.85;;;2.50;;
68886;SDS011;55925;51.764;6.402;2023-03-18T14:54:23;5.38;;;2.72;;
68886;SDS011;55925;51.764;6.402;2023-03-18T14:56:53;5.07;;;2.63;;
68886;SDS011;55925;51.764;6.402;2023-03-18T14:59:25;6.82;;;2.22;;
68886;SDS011;55925;51.764;6.402;2023-03-18T15:01:51;5.78;;;1.83;;
68886;SDS011;55925;51.764;6.402;2023-03-18T15:04:21;5.18;;;1.70;;
68886;SDS011;55925;51.764;6.402;2023-03-18T15:06:49;4.60;;;1.65;;
68886;SDS011;55925;51.764;6.402;2023-03-18T15:09:17;5.15;;;2.00;;
68886;SDS011;55925;51.764;6.402;2023-03-18T15:11:44;3.70;;;1.27;;
68886;SDS011;55925;51.764;6.402;2023-03-18T15:16:37;5.20;;;1.75;;
68886;SDS011;55925;51.764;6.402;2023-03-18T15:19:03;4.97;;;1.88;;
68886;SDS011;55925;51.764;6.402;2023-03-18T15:21:31;4.72;;;1.50;;
68886;SDS011;55925;51.764;6.402;2023-03-18T15:24:02;4.90;;;1.58;;
68886;SDS011;55925;51.764;6.402;2023-03-18T15:28:56;4.90;;;1.58;;
68886;SDS011;55925;51.764;6.402;2023-03-18T15:31:35;3.97;;;1.58;;
68886;SDS011;55925;51.764;6.402;2023-03-18T15:34:05;3.92;;;1.58;;
68886;SDS011;55925;51.764;6.402;2023-03-18T15:36:38;4.55;;;1.90;;
68886;SDS011;55925;51.764;6.402;2023-03-18T15:39:17;4.75;;;1.83;;
68886;SDS011;55925;51.764;6.402;2023-03-18T15:41:44;6.10;;;1.70;;
68886;SDS011;55925;51.764;6.402;2023-03-18T15:44:14;4.68;;;1.50;;
68886;SDS011;55925;51.764;6.402;2023-03-18T15:46:46;4.22;;;1.42;;
68886;SDS011;55925;51.764;6.402;2023-03-18T15:49:12;4.68;;;1.85;;
68886;SDS011;55925;51.764;6.402;2023-03-18T15:51:42;4.80;;;1.65;;
68886;SDS011;55925;51.764;6.402;2023-03-18T15:54:16;4.70;;;1.90;;
68886;SDS011;55925;51.764;6.402;2023-03-18T15:56:44;6.57;;;1.88;;
68886;SDS011;55925;51.764;6.402;2023-03-18T15:59:17;6.07;;;1.63;;
68886;SDS011;55925;51.764;6.402;2023-03-18T16:01:43;4.05;;;1.60;;
68886;SDS011;55925;51.764;6.402;2023-03-18T16:04:12;5.15;;;1.92;;
68886;SDS011;55925;51.764;6.402;2023-03-18T16:06:39;5.32;;;1.90;;
68886;SDS011;55925;51.764;6.402;2023-03-18T16:09:18;4.25;;;1.63;;
68886;SDS011;55925;51.764;6.402;2023-03-18T16:11:55;4.15;;;1.58;;
68886;SDS011;55925;51.764;6.402;2023-03-18T16:14:23;5.20;;;1.92;;
68886;SDS011;55925;51.764;6.402;2023-03-18T16:16:49;5.25;;;1.45;;
68886;SDS011;55925;51.764;6.402;2023-03-18T16:19:23;6.95;;;1.95;;
68886;SDS011;55925;51.764;6.402;2023-03-18T16:21:51;6.65;;;1.88;;
68886;SDS011;55925;51.764;6.402;2023-03-18T16:24:18;4.38;;;1.52;;
68886;SDS011;55925;51.764;6.402;2023-03-18T16:26:44;5.15;;;1.80;;
68886;SDS011;55925;51.764;6.402;2023-03-18T16:29:25;5.40;;;1.70;;
68886;SDS011;55925;51.764;6.402;2023-03-18T16:31:52;4.60;;;1.95;;
68886;SDS011;55925;51.764;6.402;2023-03-18T16:34:18;6.65;;;2.20;;
68886;SDS011;55925;51.764;6.402;2023-03-18T16:36:45;5.65;;;1.88;;
68886;SDS011;55925;51.764;6.402;2023-03-18T16:39:18;5.40;;;2.00;;
68886;SDS011;55925;51.764;6.402;2023-03-18T16:41:44;6.38;;;2.28;;
68886;SDS011;55925;51.764;6.402;2023-03-18T16:44:15;7.15;;;2.13;;
68886;SDS011;55925;51.764;6.402;2023-03-18T16:46:41;6.25;;;2.25;;
68886;SDS011;55925;51.764;6.402;2023-03-18T16:49:13;7.03;;;2.65;;
68886;SDS011;55925;51.764;6.402;2023-03-18T16:51:39;5.38;;;2.17;;
68886;SDS011;55925;51.764;6.402;2023-03-18T16:54:14;5.55;;;1.85;;
68886;SDS011;55925;51.764;6.402;2023-03-18T16:56:41;6.10;;;1.98;;
68886;SDS011;55925;51.764;6.402;2023-03-18T16:59:11;6.55;;;1.90;;
68886;SDS011;55925;51.764;6.402;2023-03-18T17:01:39;5.00;;;1.92;;
68886;SDS011;55925;51.764;6.402;2023-03-18T17:04:26;6.78;;;1.80;;
68886;SDS011;55925;51.764;6.402;2023-03-18T17:06:56;4.57;;;1.90;;
68886;SDS011;55925;51.764;6.402;2023-03-18T17:09:23;4.30;;;1.70;;